Time;durP1;ratioP1;P1;durP2;ratioP2;P2;SDS_P1;SDS_P2;PMS_P1;PMS_P2;Temp;Humidity;BMP_temperature;BMP_pressure;BME280_temperature;BME280_humidity;BME280_pressure;Samples;Min_cycle;Max_cycle;Signal;HPM_P1;HPM_P2
2021/11/15 00:02:05;;;;;;;94.13;63.75;;;;;;;6.07;94.58;100994.99;1729984;81;21006;-71
2021/11/15 00:04:33;;;;;;;101.82;63.40;;;;;;;6.02;94.34;100988.88;1707997;81;21010;-73
2021/11/15 00:07:01;;;;;;;109.92;66.60;;;;;;;5.99;94.33;100991.94;1731018;81;21503;-74
2021/11/15 00:09:28;;;;;;;113.10;68.52;;;;;;;5.97;94.36;100999.30;1735503;81;21032;-77
2021/11/15 00:11:56;;;;;;;103.12;68.35;;;;;;;5.99;94.56;100997.28;1743950;82;20994;-79
2021/11/15 00:14:22;;;;;;;102.70;64.32;;;;;;;6.02;94.59;100994.23;1743553;82;20928;-75
2021/11/15 00:16:48;;;;;;;98.12;64.20;;;;;;;6.05;94.56;100988.49;1730267;82;21106;-72
2021/11/15 00:19:16;;;;;;;102.38;66.02;;;;;;;6.06;94.55;100991.49;1726033;83;20877;-72
2021/11/15 00:21:43;;;;;;;89.42;58.40;;;;;;;6.07;94.47;100997.16;1701483;83;21030;-71
2021/11/15 00:24:09;;;;;;;97.30;61.40;;;;;;;6.07;94.44;100994.48;1701523;83;21783;-71
2021/11/15 00:26:36;;;;;;;101.07;66.57;;;;;;;6.07;94.40;100992.33;1729368;83;21061;-72
2021/11/15 00:29:03;;;;;;;92.88;59.15;;;;;;;6.10;94.45;101001.28;1701211;83;21587;-72
2021/11/15 00:31:29;;;;;;;98.97;64.65;;;;;;;6.13;94.40;101002.27;1752006;81;20896;-74
2021/11/15 00:33:56;;;;;;;82.02;56.65;;;;;;;6.16;94.33;100992.52;1738178;81;21027;-75
2021/11/15 00:36:22;;;;;;;86.87;58.55;;;;;;;6.20;94.20;100978.27;1745866;80;21042;-71
2021/11/15 00:38:49;;;;;;;87.80;58.83;;;;;;;6.20;93.98;100979.61;1721238;82;21017;-71
2021/11/15 00:41:15;;;;;;;91.00;60.80;;;;;;;6.17;93.84;100985.34;1706374;83;21002;-71
2021/11/15 00:43:41;;;;;;;113.75;68.30;;;;;;;6.13;93.74;100992.41;1700694;83;21065;-74
2021/11/15 00:46:08;;;;;;;121.22;71.80;;;;;;;6.08;93.65;101006.84;1713874;82;21021;-72
2021/11/15 00:48:34;;;;;;;124.38;75.50;;;;;;;6.03;93.64;101004.41;1721804;82;21273;-74
2021/11/15 00:51:01;;;;;;;128.87;77.58;;;;;;;5.97;93.75;101002.47;1737590;82;20956;-72
2021/11/15 00:53:29;;;;;;;103.85;66.17;;;;;;;5.94;93.95;101003.69;1746647;82;20998;-73
2021/11/15 00:55:56;;;;;;;104.30;67.22;;;;;;;5.95;94.03;101001.31;1700580;83;21511;-71
2021/11/15 00:58:24;;;;;;;107.70;64.12;;;;;;;5.93;94.12;100996.69;1698561;83;21076;-73
2021/11/15 01:00:50;;;;;;;99.35;64.47;;;;;;;5.93;94.18;101012.71;1728174;82;21141;-71
2021/11/15 01:03:17;;;;;;;89.32;59.15;;;;;;;5.90;94.17;101005.59;1729170;83;20899;-81
2021/11/15 01:05:53;;;;;;;94.50;59.05;;;;;;;5.89;94.42;101012.77;1703070;82;21018;-83
2021/11/15 01:08:12;;;;;;;96.75;61.33;;;;;;;5.91;94.56;101019.23;1741657;82;21044;-73
2021/11/15 01:10:39;;;;;;;108.10;64.80;;;;;;;5.88;94.58;101026.30;1722387;82;21058;-84
2021/11/15 01:13:05;;;;;;;95.20;60.00;;;;;;;5.87;94.76;101025.47;1725631;82;22030;-70
2021/11/15 01:15:31;;;;;;;90.20;55.60;;;;;;;5.92;94.96;101030.24;1744569;82;20990;-73
2021/11/15 01:17:58;;;;;;;82.78;54.23;;;;;;;5.91;95.03;101021.91;1743224;82;21061;-70
2021/11/15 01:20:29;;;;;;;76.67;53.73;;;;;;;5.84;95.34;101025.81;1741570;82;21095;-70
2021/11/15 01:22:56;;;;;;;82.50;54.18;;;;;;;5.80;95.42;101027.71;1728047;83;20955;-72
2021/11/15 01:25:22;;;;;;;83.12;53.35;;;;;;;5.72;95.77;101025.95;1699616;83;21192;-76
2021/11/15 01:27:48;;;;;;;79.87;52.78;;;;;;;5.63;96.19;101024.40;1725515;83;21035;-76
2021/11/15 01:30:17;;;;;;;81.42;55.05;;;;;;;5.58;96.25;101034.80;1727174;82;21011;-75
2021/11/15 01:32:43;;;;;;;70.47;47.30;;;;;;;5.57;96.73;101027.80;1727290;82;21016;-78
2021/11/15 01:35:09;;;;;;;81.45;50.55;;;;;;;5.60;97.02;101029.61;1714295;82;21038;-78
2021/11/15 01:37:37;;;;;;;82.12;56.98;;;;;;;5.62;96.89;101024.91;1746175;82;21133;-70
2021/11/15 01:40:06;;;;;;;87.80;55.12;;;;;;;5.54;96.84;101027.67;1743148;82;21159;-70
2021/11/15 01:42:33;;;;;;;81.80;55.52;;;;;;;5.48;97.18;101027.57;1717738;82;20968;-71
2021/11/15 01:44:59;;;;;;;78.17;54.38;;;;;;;5.48;97.34;101033.73;1725788;82;21012;-70
2021/11/15 01:47:26;;;;;;;80.17;56.60;;;;;;;5.51;97.47;101029.39;1725962;82;21520;-71
2021/11/15 01:49:52;;;;;;;77.65;53.80;;;;;;;5.48;97.72;101020.90;1720043;82;21147;-73
2021/11/15 01:52:19;;;;;;;89.65;57.80;;;;;;;5.45;97.88;101020.78;1751168;82;21006;-71
2021/11/15 01:54:45;;;;;;;79.85;51.50;;;;;;;5.42;97.93;101013.12;1734017;82;21534;-77
2021/11/15 01:57:14;;;;;;;76.20;51.35;;;;;;;5.42;98.12;101013.12;1724312;83;20977;-76
2021/11/15 01:59:40;;;;;;;78.55;55.52;;;;;;;5.43;98.30;101013.95;1704729;82;21019;-74
2021/11/15 02:02:07;;;;;;;85.15;58.75;;;;;;;5.48;98.48;101016.39;1750924;82;21068;-75
2021/11/15 02:04:33;;;;;;;77.20;49.10;;;;;;;5.46;98.33;101014.44;1722303;82;21030;-74
2021/11/15 02:06:59;;;;;;;88.05;55.12;;;;;;;5.48;98.47;101008.89;1745672;82;21042;-78
2021/11/15 02:09:27;;;;;;;81.72;52.45;;;;;;;5.45;98.26;101023.44;1702601;82;21122;-75
2021/11/15 02:11:54;;;;;;;85.42;53.17;;;;;;;5.42;98.31;101015.78;1709579;82;20920;-71
2021/11/15 02:14:20;;;;;;;68.62;47.95;;;;;;;5.44;98.54;101005.77;1740656;82;21092;-73
2021/11/15 02:16:46;;;;;;;82.57;51.35;;;;;;;5.43;98.69;101014.78;1694362;84;21500;-75
2021/11/15 02:19:12;;;;;;;76.82;48.98;;;;;;;5.49;98.79;101017.23;1710539;84;21054;-74
2021/11/15 02:21:39;;;;;;;78.97;53.10;;;;;;;5.60;98.98;101020.78;1722054;83;21362;-73
2021/11/15 02:24:05;;;;;;;77.75;51.08;;;;;;;5.62;98.40;101020.90;1723484;83;20980;-72
2021/11/15 02:26:32;;;;;;;77.27;52.80;;;;;;;5.54;98.08;101033.52;1725968;81;21012;-73
2021/11/15 02:28:58;;;;;;;82.62;54.38;;;;;;;5.51;98.19;101041.39;1719693;82;21018;-73
2021/11/15 02:31:28;;;;;;;63.52;42.78;;;;;;;5.52;98.35;101048.36;1693009;83;21602;-73
2021/11/15 02:33:58;;;;;;;84.58;53.70;;;;;;;5.53;98.46;101047.86;1695938;83;21088;-74
2021/11/15 02:36:27;;;;;;;80.45;53.90;;;;;;;5.45;98.34;101056.80;1724893;82;21549;-74
2021/11/15 02:38:54;;;;;;;81.92;53.92;;;;;;;5.39;98.64;101070.02;1716454;82;21080;-72
2021/11/15 02:41:21;;;;;;;79.15;50.67;;;;;;;5.37;98.78;101068.86;1721805;82;21021;-74
2021/11/15 02:43:47;;;;;;;78.87;49.42;;;;;;;5.28;99.19;101065.95;1713246;83;21029;-75
2021/11/15 02:46:22;;;;;;;76.22;51.00;;;;;;;5.26;99.37;101077.33;1697681;83;21027;-74
2021/11/15 02:48:48;;;;;;;70.87;47.62;;;;;;;5.28;99.71;101073.45;1746616;82;21417;-76
2021/11/15 02:51:15;;;;;;;67.40;45.12;;;;;;;5.28;99.81;101078.80;1709824;82;21450;-73
2021/11/15 02:53:42;;;;;;;70.55;49.93;;;;;;;5.33;100.00;101078.75;1680511;84;21514;-74
2021/11/15 02:56:10;;;;;;;74.92;49.23;;;;;;;5.28;100.00;101079.30;1694511;83;20968;-76
2021/11/15 02:58:36;;;;;;;62.30;43.48;;;;;;;5.24;100.00;101078.00;1687575;84;21612;-75
2021/11/15 03:01:12;;;;;;;70.30;45.33;;;;;;;5.27;100.00;101087.80;1715064;83;21488;-75
2021/11/15 03:03:39;;;;;;;73.75;48.17;;;;;;;5.25;100.00;101081.00;1722055;83;21902;-74
2021/11/15 03:06:05;;;;;;;72.78;48.40;;;;;;;5.33;100.00;101080.91;1711260;82;21014;-74
2021/11/15 03:08:32;;;;;;;76.07;50.45;;;;;;;5.33;100.00;101076.91;1722745;82;21508;-74
2021/11/15 03:11:00;;;;;;;72.12;51.35;;;;;;;5.38;100.00;101080.37;1719397;83;21036;-74
2021/11/15 03:13:37;;;;;;;80.50;52.15;;;;;;;5.38;100.00;101081.20;1698010;83;21055;-75
2021/11/15 03:16:05;;;;;;;72.92;48.38;;;;;;;5.38;100.00;101097.70;1745138;81;21656;-75
2021/11/15 03:18:36;;;;;;;71.72;48.40;;;;;;;5.38;100.00;101101.71;1675068;84;21553;-76
2021/11/15 03:21:13;;;;;;;73.52;44.73;;;;;;;5.36;100.00;101102.42;1705715;83;21011;-74
2021/11/15 03:23:42;;;;;;;72.97;47.00;;;;;;;5.36;100.00;101104.58;1682299;84;21097;-74
2021/11/15 03:26:09;;;;;;;68.20;46.10;;;;;;;5.43;100.00;101099.33;1705594;83;21526;-74
2021/11/15 03:28:39;;;;;;;55.67;38.30;;;;;;;5.50;100.00;101106.45;1730779;82;22419;-74
2021/11/15 03:31:09;;;;;;;60.43;38.28;;;;;;;5.53;99.69;101110.57;1744716;82;20917;-77
2021/11/15 03:33:37;;;;;;;69.47;47.20;;;;;;;5.53;99.47;101114.58;1722027;82;21001;-75
2021/11/15 03:36:05;;;;;;;67.95;45.78;;;;;;;5.47;99.01;101109.95;1737665;82;21046;-74
2021/11/15 03:38:32;;;;;;;67.32;44.20;;;;;;;5.38;99.13;101113.21;1728159;82;21019;-75
2021/11/15 03:40:58;;;;;;;70.97;42.88;;;;;;;5.37;99.34;101120.89;1698673;83;21231;-75
2021/11/15 03:43:24;;;;;;;64.85;41.53;;;;;;;5.30;99.51;101119.14;1726005;83;21054;-74
2021/11/15 03:45:51;;;;;;;62.03;41.33;;;;;;;5.30;99.75;101118.64;1725561;83;21094;-75
2021/11/15 03:48:17;;;;;;;56.92;40.40;;;;;;;5.33;99.75;101122.77;1683936;84;21103;-75
2021/11/15 03:50:44;;;;;;;56.00;37.60;;;;;;;5.43;99.90;101126.84;1720302;82;21003;-75
2021/11/15 03:53:12;;;;;;;65.87;44.42;;;;;;;5.48;99.51;101126.30;1727710;83;21110;-75
2021/11/15 03:55:40;;;;;;;56.65;39.58;;;;;;;5.44;99.18;101127.17;1727869;83;21086;-76
2021/11/15 03:58:06;;;;;;;58.40;38.42;;;;;;;5.47;99.19;101130.80;1724929;83;21320;-76
2021/11/15 04:00:38;;;;;;;56.13;39.13;;;;;;;5.42;99.04;101128.37;1728197;83;21014;-75
2021/11/15 04:03:10;;;;;;;62.05;41.42;;;;;;;5.39;99.10;101133.55;1725130;83;21014;-76
2021/11/15 04:05:38;;;;;;;59.58;42.38;;;;;;;5.43;99.30;101132.17;1696782;83;21549;-75
2021/11/15 04:08:06;;;;;;;56.65;41.77;;;;;;;5.51;99.38;101135.30;1712428;83;20986;-75
2021/11/15 04:10:41;;;;;;;47.17;32.15;;;;;;;5.53;99.17;101130.09;1725494;83;20968;-75
2021/11/15 04:13:17;;;;;;;57.93;35.25;;;;;;;5.57;98.85;101130.54;1701774;83;21101;-73
2021/11/15 04:15:45;;;;;;;53.08;39.45;;;;;;;5.55;98.38;101135.25;1740554;82;21003;-75
2021/11/15 04:18:14;;;;;;;77.53;55.43;;;;;;;5.55;98.34;101139.25;1728205;83;21100;-76
2021/11/15 04:20:41;;;;;;;60.98;46.33;;;;;;;5.54;98.39;101132.25;1727558;83;20979;-76
2021/11/15 04:23:07;;;;;;;51.88;38.35;;;;;;;5.55;98.20;101133.41;1725431;83;21590;-76
2021/11/15 04:25:34;;;;;;;51.00;40.63;;;;;;;5.59;98.21;101136.54;1727700;83;21009;-75
2021/11/15 04:28:01;;;;;;;59.77;40.55;;;;;;;5.57;97.93;101135.88;1723311;83;21006;-77
2021/11/15 04:30:31;;;;;;;53.10;37.38;;;;;;;5.58;97.84;101140.21;1721934;83;21007;-76
2021/11/15 04:33:00;;;;;;;51.92;36.38;;;;;;;5.54;97.54;101149.59;1733877;81;21021;-75
2021/11/15 04:35:27;;;;;;;52.30;37.45;;;;;;;5.54;97.64;101142.92;1714742;83;21078;-75
2021/11/15 04:37:53;;;;;;;57.53;42.53;;;;;;;5.55;97.55;101148.09;1740175;82;21042;-76
2021/11/15 04:40:19;;;;;;;52.23;37.60;;;;;;;5.53;97.34;101154.09;1733846;82;21053;-75
2021/11/15 04:42:46;;;;;;;60.95;39.53;;;;;;;5.52;97.31;101156.44;1706282;82;22072;-74
2021/11/15 04:45:13;;;;;;;56.90;38.05;;;;;;;5.54;97.35;101165.61;1734067;82;21274;-74
2021/11/15 04:47:40;;;;;;;55.83;38.65;;;;;;;5.59;97.38;101169.40;1711360;83;21125;-75
2021/11/15 04:50:07;;;;;;;45.92;33.98;;;;;;;5.61;97.08;101170.03;1724575;83;21024;-74
2021/11/15 04:52:34;;;;;;;49.42;35.70;;;;;;;5.55;96.79;101173.44;1728388;83;21094;-74
2021/11/15 04:55:00;;;;;;;52.65;35.28;;;;;;;5.52;96.77;101166.28;1727912;83;21218;-75
2021/11/15 04:57:27;;;;;;;40.40;30.02;;;;;;;5.49;96.81;101178.66;1728014;83;20990;-76
2021/11/15 04:59:53;;;;;;;53.78;35.20;;;;;;;5.51;96.99;101177.48;1727922;83;20951;-75
2021/11/15 05:02:19;;;;;;;54.73;36.42;;;;;;;5.50;96.83;101178.48;1700022;83;21070;-75
2021/11/15 05:04:46;;;;;;;58.02;37.88;;;;;;;5.50;96.87;101171.82;1697279;83;21052;-76
2021/11/15 05:07:12;;;;;;;48.08;32.55;;;;;;;5.54;96.95;101182.45;1721446;83;21279;-75
2021/11/15 05:09:39;;;;;;;53.60;35.83;;;;;;;5.55;96.73;101186.78;1697378;83;21542;-76
2021/11/15 05:12:08;;;;;;;47.90;33.73;;;;;;;5.54;96.55;101190.45;1720223;83;21582;-75
2021/11/15 05:14:35;;;;;;;45.43;35.03;;;;;;;5.51;96.35;101182.83;1722194;83;21505;-73
2021/11/15 05:17:02;;;;;;;48.38;34.27;;;;;;;5.51;96.41;101193.50;1720221;81;20979;-77
2021/11/15 05:19:28;;;;;;;48.02;33.13;;;;;;;5.55;96.50;101194.80;1718776;83;21121;-78
2021/11/15 05:21:55;;;;;;;44.67;32.25;;;;;;;5.56;96.12;101208.97;1729947;82;21054;-78
2021/11/15 05:24:23;;;;;;;48.13;33.38;;;;;;;5.49;95.94;101211.52;1721082;82;33891;-77
2021/11/15 05:26:50;;;;;;;50.30;37.28;;;;;;;5.50;96.11;101217.69;1725695;83;21055;-78
2021/11/15 05:29:16;;;;;;;49.58;34.50;;;;;;;5.51;96.09;101219.35;1726807;83;21006;-78
2021/11/15 05:31:42;;;;;;;42.38;30.20;;;;;;;5.52;95.95;101224.48;1725379;81;21132;-78
2021/11/15 05:34:09;;;;;;;53.92;32.53;;;;;;;5.53;95.87;101229.33;1699060;83;20974;-82
2021/11/15 05:36:35;;;;;;;46.45;33.55;;;;;;;5.52;95.84;101237.83;1698888;83;21025;-77
2021/11/15 05:39:04;;;;;;;51.45;33.48;;;;;;;5.56;95.78;101244.47;1715036;83;21043;-78
2021/11/15 05:41:31;;;;;;;40.17;30.17;;;;;;;5.52;95.35;101249.84;1712870;83;20994;-77
2021/11/15 05:43:57;;;;;;;37.75;30.43;;;;;;;5.47;95.25;101237.54;1713084;83;21141;-78
2021/11/15 05:46:24;;;;;;;51.48;35.28;;;;;;;5.44;95.25;101245.08;1686555;83;22204;-79
2021/11/15 05:48:51;;;;;;;43.70;30.97;;;;;;;5.43;95.42;101247.41;1726663;83;21563;-79
2021/11/15 05:51:18;;;;;;;44.00;32.85;;;;;;;5.45;95.45;101246.74;1727680;82;21759;-80
2021/11/15 05:53:46;;;;;;;45.55;33.25;;;;;;;5.46;95.26;101250.58;1727668;83;21027;-79
2021/11/15 05:56:14;;;;;;;48.48;32.25;;;;;;;5.49;95.32;101256.87;1727609;83;21605;-76
2021/11/15 05:58:40;;;;;;;44.18;32.65;;;;;;;5.53;95.14;101264.02;1702551;83;21018;-76
2021/11/15 06:01:08;;;;;;;42.90;30.65;;;;;;;5.50;94.85;101263.88;1727855;82;21022;-75
2021/11/15 06:03:34;;;;;;;43.33;30.35;;;;;;;5.49;94.79;101265.39;1677672;83;21559;-76
2021/11/15 06:06:00;;;;;;;41.30;29.35;;;;;;;5.50;94.75;101265.72;1701740;83;21554;-74
2021/11/15 06:08:27;;;;;;;33.30;25.50;;;;;;;5.47;94.49;101270.89;1722280;83;21221;-76
2021/11/15 06:10:53;;;;;;;39.53;29.82;;;;;;;5.47;94.43;101267.39;1703463;83;20962;-75
2021/11/15 06:13:20;;;;;;;42.53;27.20;;;;;;;5.43;94.35;101269.59;1728291;83;21069;-77
2021/11/15 06:15:48;;;;;;;45.28;30.82;;;;;;;5.40;94.37;101266.45;1728097;83;21049;-77
2021/11/15 06:18:15;;;;;;;43.20;29.65;;;;;;;5.37;94.34;101272.16;1728737;83;21018;-74
2021/11/15 06:20:43;;;;;;;41.85;27.58;;;;;;;5.39;94.49;101275.46;1726131;83;21010;-76
2021/11/15 06:23:09;;;;;;;43.55;31.35;;;;;;;5.40;94.60;101272.62;1703306;83;21173;-75
2021/11/15 06:25:36;;;;;;;37.10;27.40;;;;;;;5.40;94.50;101277.13;1694153;84;20970;-76
2021/11/15 06:28:03;;;;;;;51.02;36.70;;;;;;;5.39;94.55;101277.63;1699715;83;20954;-76
2021/11/15 06:30:30;;;;;;;48.52;36.33;;;;;;;5.37;94.38;101283.63;1697757;84;21535;-78
2021/11/15 06:32:56;;;;;;;53.87;34.60;;;;;;;5.33;94.24;101280.16;1675723;84;21174;-77
2021/11/15 06:35:26;;;;;;;40.63;28.07;;;;;;;5.20;94.38;101286.92;1673862;84;20966;-80
2021/11/15 06:37:51;;;;;;;41.65;28.60;;;;;;;5.20;94.72;101290.92;1673134;84;21006;-78
2021/11/15 06:40:17;;;;;;;38.95;28.65;;;;;;;5.26;94.93;101295.56;1690797;83;21003;-78
2021/11/15 06:42:44;;;;;;;40.52;28.52;;;;;;;5.37;95.01;101294.84;1725426;83;21010;-75
2021/11/15 06:45:11;;;;;;;41.00;28.57;;;;;;;5.38;94.61;101299.98;1679604;84;22435;-78
2021/11/15 06:47:37;;;;;;;39.03;27.62;;;;;;;5.39;94.60;101308.31;1694998;84;20998;-77
2021/11/15 06:50:06;;;;;;;41.37;26.50;;;;;;;5.42;94.45;101310.61;1695215;84;20958;-77
2021/11/15 06:52:33;;;;;;;36.17;23.50;;;;;;;5.44;94.33;101308.61;1694736;84;21530;-78
2021/11/15 06:54:59;;;;;;;42.60;28.60;;;;;;;5.46;94.16;101315.95;1694950;84;21559;-76
2021/11/15 06:57:26;;;;;;;42.90;29.02;;;;;;;5.44;94.10;101316.62;1699509;83;21880;-77
2021/11/15 06:59:53;;;;;;;43.23;29.40;;;;;;;5.40;93.77;101323.32;1713681;83;21530;-77
2021/11/15 07:02:20;;;;;;;40.65;27.60;;;;;;;5.37;93.85;101322.85;1723344;83;21050;-78
2021/11/15 07:04:48;;;;;;;39.73;28.10;;;;;;;5.40;93.96;101329.16;1669066;84;21507;-80
2021/11/15 07:07:14;;;;;;;43.87;27.70;;;;;;;5.33;93.27;101332.19;1694839;84;21097;-81
2021/11/15 07:09:45;;;;;;;38.02;26.30;;;;;;;5.33;93.30;101336.19;1700767;83;21015;-80
2021/11/15 07:12:10;;;;;;;36.85;26.48;;;;;;;5.30;92.88;101334.72;1669587;84;20986;-81
2021/11/15 07:14:39;;;;;;;41.15;28.02;;;;;;;5.27;92.89;101339.88;1684411;83;20968;-81
2021/11/15 07:17:05;;;;;;;35.05;25.23;;;;;;;5.35;92.98;101347.03;1725063;82;20932;-80
2021/11/15 07:19:31;;;;;;;49.27;29.45;;;;;;;5.38;92.51;101349.33;1699395;83;21083;-79
2021/11/15 07:21:58;;;;;;;42.40;28.23;;;;;;;5.37;92.24;101353.00;1706877;83;21132;-82
2021/11/15 07:24:24;;;;;;;44.67;27.48;;;;;;;5.42;92.28;101349.84;1686681;84;21475;-82
2021/11/15 07:26:51;;;;;;;46.55;28.83;;;;;;;5.43;92.01;101354.98;1695023;84;21017;-81
2021/11/15 07:29:17;;;;;;;38.88;25.80;;;;;;;5.44;91.81;101361.98;1709635;83;21010;-81
2021/11/15 07:31:44;;;;;;;33.73;24.60;;;;;;;5.46;91.57;101363.16;1724275;83;21092;-80
2021/11/15 07:34:11;;;;;;;33.78;23.47;;;;;;;5.50;91.30;101369.30;1698641;83;21044;-80
2021/11/15 07:36:37;;;;;;;32.58;23.05;;;;;;;5.52;90.73;101369.09;1698435;83;21101;-80
2021/11/15 07:39:03;;;;;;;42.00;28.05;;;;;;;5.52;90.28;101373.10;1697669;83;21105;-77
2021/11/15 07:41:30;;;;;;;38.67;25.95;;;;;;;5.44;89.59;101374.48;1725411;83;21300;-75
2021/11/15 07:43:56;;;;;;;35.05;25.50;;;;;;;5.37;88.70;101389.55;1701261;83;21010;-75
2021/11/15 07:46:23;;;;;;;43.40;28.07;;;;;;;5.27;88.91;101381.77;1685773;83;21803;-73
2021/11/15 07:48:50;;;;;;;38.20;25.17;;;;;;;5.29;89.17;101389.07;1724836;83;21007;-73
2021/11/15 07:51:16;;;;;;;40.20;28.52;;;;;;;5.32;89.48;101387.91;1723209;83;21530;-74
2021/11/15 07:53:43;;;;;;;42.55;28.15;;;;;;;5.40;89.50;101394.53;1698983;83;21094;-74
2021/11/15 07:56:10;;;;;;;39.60;30.25;;;;;;;5.42;89.19;101389.86;1724341;83;21026;-73
2021/11/15 07:58:37;;;;;;;39.90;27.25;;;;;;;5.40;88.48;101394.03;1700188;83;21592;-74
2021/11/15 08:01:03;;;;;;;38.53;26.02;;;;;;;5.35;88.19;101394.22;1728008;83;21076;-74
2021/11/15 08:03:30;;;;;;;40.30;28.30;;;;;;;5.32;88.31;101399.41;1715892;83;21081;-75
2021/11/15 08:05:57;;;;;;;42.23;27.27;;;;;;;5.30;88.24;101401.91;1725369;83;21063;-75
2021/11/15 08:08:24;;;;;;;46.83;29.30;;;;;;;5.30;88.52;101396.57;1725672;83;20855;-76
2021/11/15 08:10:50;;;;;;;44.85;31.62;;;;;;;5.37;88.83;101402.89;1695529;83;21984;-74
2021/11/15 08:13:17;;;;;;;40.98;28.47;;;;;;;5.40;88.58;101410.53;1680436;83;21495;-75
2021/11/15 08:15:44;;;;;;;35.65;25.40;;;;;;;5.42;88.45;101405.34;1698169;83;20970;-74
2021/11/15 08:18:10;;;;;;;41.37;28.60;;;;;;;5.44;87.90;101416.69;1698655;83;21071;-76
2021/11/15 08:20:39;;;;;;;36.40;27.00;;;;;;;5.45;87.10;101422.36;1698399;83;21553;-75
2021/11/15 08:23:13;;;;;;;44.83;31.15;;;;;;;5.44;86.55;101421.19;1725337;83;20974;-76
2021/11/15 08:26:15;;;;;;;46.15;31.15;;;;;;;5.45;86.33;101422.36;1717888;83;21046;-75
2021/11/15 08:28:41;;;;;;;44.67;29.42;;;;;;;5.43;85.97;101421.69;1696488;83;21038;-78
2021/11/15 08:31:08;;;;;;;35.83;27.10;;;;;;;5.26;85.41;101420.94;1712584;83;21026;-79
2021/11/15 08:33:35;;;;;;;44.95;30.05;;;;;;;5.20;85.76;101426.13;1690613;83;21038;-78
2021/11/15 08:36:01;;;;;;;39.73;28.65;;;;;;;5.18;86.09;101433.48;1703680;83;20993;-78
2021/11/15 08:38:51;;;;;;;49.23;32.55;;;;;;;5.15;86.33;101439.14;1715873;83;21176;-76
2021/11/15 08:41:22;;;;;;;47.35;31.97;;;;;;;5.15;86.60;101442.64;1728354;82;21055;-76
2021/11/15 08:43:51;;;;;;;44.40;28.47;;;;;;;5.16;86.85;101447.48;1713814;81;21035;-75
2021/11/15 08:46:19;;;;;;;44.03;29.18;;;;;;;5.20;87.02;101450.13;1731199;81;21086;-74
2021/11/15 08:48:46;;;;;;;48.55;30.40;;;;;;;5.14;86.62;101453.47;1746581;81;21184;-78
2021/11/15 08:51:15;;;;;;;47.20;31.12;;;;;;;5.08;86.84;101455.02;1713259;82;21109;-77
2021/11/15 08:53:41;;;;;;;51.58;28.05;;;;;;;5.06;87.21;101460.17;1705617;83;20956;-75
2021/11/15 08:56:09;;;;;;;40.30;26.12;;;;;;;5.04;87.42;101457.66;1724152;83;21235;-76
2021/11/15 08:58:37;;;;;;;44.90;27.07;;;;;;;4.98;87.32;101451.70;1723927;83;20962;-75
2021/11/15 09:01:05;;;;;;;35.30;24.45;;;;;;;4.87;86.88;101460.05;1704611;83;21129;-75
2021/11/15 09:03:34;;;;;;;47.53;29.82;;;;;;;4.79;86.83;101450.74;1729070;83;20984;-77
2021/11/15 09:06:00;;;;;;;36.68;23.50;;;;;;;4.66;86.67;101465.89;1733635;82;24880;-76
2021/11/15 09:08:26;;;;;;;40.78;26.55;;;;;;;4.61;87.16;101459.40;1706105;83;21020;-74
2021/11/15 09:10:53;;;;;;;37.25;24.95;;;;;;;4.60;87.52;101453.77;1728936;83;21062;-76
2021/11/15 09:13:20;;;;;;;34.55;24.32;;;;;;;4.56;87.59;101455.91;1706114;83;21071;-78
2021/11/15 09:15:47;;;;;;;47.15;28.42;;;;;;;4.53;87.91;101452.75;1727997;83;20995;-77
2021/11/15 09:18:14;;;;;;;39.65;26.33;;;;;;;4.50;87.95;101457.09;1732282;82;21050;-77
2021/11/15 09:20:41;;;;;;;36.83;24.90;;;;;;;4.47;88.45;101462.23;1733078;82;20901;-76
2021/11/15 09:23:07;;;;;;;42.53;28.38;;;;;;;4.43;88.83;101459.58;1729317;83;21138;-76
2021/11/15 09:25:34;;;;;;;33.50;24.25;;;;;;;4.41;89.00;101468.25;1730994;82;21174;-79
2021/11/15 09:28:01;;;;;;;36.17;24.95;;;;;;;4.39;89.37;101470.23;1729335;82;21526;-77
2021/11/15 09:30:27;;;;;;;31.70;22.55;;;;;;;4.37;89.30;101470.39;1706144;83;21018;-79
2021/11/15 09:32:54;;;;;;;37.88;26.68;;;;;;;4.33;88.84;101479.72;1729557;83;21003;-77
2021/11/15 09:35:21;;;;;;;42.08;25.12;;;;;;;4.34;88.91;101481.89;1729526;83;21072;-78
2021/11/15 09:37:48;;;;;;;58.40;33.33;;;;;;;4.36;89.05;101482.05;1729260;82;21820;-79
2021/11/15 09:40:15;;;;;;;44.18;28.20;;;;;;;4.35;88.99;101484.89;1701726;83;21028;-78
2021/11/15 09:42:41;;;;;;;40.00;25.08;;;;;;;4.35;89.28;101476.91;1681611;84;21542;-78
2021/11/15 09:45:09;;;;;;;41.77;25.32;;;;;;;4.34;89.47;101482.72;1683899;83;21019;-78
2021/11/15 09:47:39;;;;;;;42.08;24.72;;;;;;;4.27;89.88;101487.03;1715748;83;21515;-78
2021/11/15 09:50:10;;;;;;;39.75;24.52;;;;;;;4.25;90.23;101489.05;1696350;83;21783;-77
2021/11/15 09:52:36;;;;;;;37.78;22.27;;;;;;;4.23;90.30;101491.52;1683520;83;20865;-77
2021/11/15 09:55:04;;;;;;;38.25;24.75;;;;;;;4.16;90.46;101490.53;1676188;83;21036;-76
2021/11/15 09:57:35;;;;;;;36.20;23.40;;;;;;;4.08;90.50;101491.33;1712992;83;21002;-75
2021/11/15 10:00:05;;;;;;;37.45;23.65;;;;;;;4.05;90.56;101490.83;1713341;83;21009;-76
2021/11/15 10:02:37;;;;;;;38.90;24.85;;;;;;;4.05;90.56;101490.83;1710611;83;20987;-76
2021/11/15 10:05:07;;;;;;;43.95;30.50;;;;;;;4.05;90.59;101500.15;1711354;83;20951;-75
2021/11/15 10:07:54;;;;;;;45.73;28.60;;;;;;;4.04;90.75;101503.80;1695935;83;21039;-76
2021/11/15 10:10:44;;;;;;;48.25;29.85;;;;;;;4.03;90.75;101502.16;1746293;81;20999;-79
2021/11/15 10:13:24;;;;;;;41.18;27.62;;;;;;;3.90;90.43;101514.09;1704663;82;21555;-79
2021/11/15 10:15:59;;;;;;;32.50;22.65;;;;;;;3.89;90.46;101516.91;1696343;83;21142;-79
2021/11/15 10:18:45;;;;;;;43.42;28.17;;;;;;;3.89;90.46;101516.91;1725048;83;20994;-80
2021/11/15 10:21:33;;;;;;;37.25;23.22;;;;;;;3.88;90.74;101518.76;1739155;81;21095;-71
2021/11/15 10:24:16;;;;;;;38.85;23.80;;;;;;;3.74;90.83;101526.52;1699789;83;21040;-73
2021/11/15 10:26:57;;;;;;;31.45;22.37;;;;;;;3.74;90.83;101526.52;1692845;83;21611;-82
2021/11/15 10:29:39;;;;;;;39.40;26.48;;;;;;;3.58;90.98;101533.09;1699170;83;21145;-76
2021/11/15 10:32:10;;;;;;;34.90;20.97;;;;;;;3.41;91.46;101544.97;1726172;82;21007;-75
2021/11/15 10:34:40;;;;;;;36.30;23.95;;;;;;;3.38;92.07;101547.95;1690014;83;21147;-77
2021/11/15 10:37:28;;;;;;;32.93;22.98;;;;;;;3.34;92.31;101549.27;1710474;83;21022;-72
2021/11/15 10:40:05;;;;;;;36.10;22.42;;;;;;;3.29;92.46;101560.87;1712013;82;21520;-74
2021/11/15 10:42:37;;;;;;;35.25;23.57;;;;;;;3.22;92.47;101559.81;1717489;82;21048;-74
2021/11/15 10:45:14;;;;;;;35.23;21.70;;;;;;;3.16;92.42;101556.47;1733347;82;20989;-76
2021/11/15 10:47:58;;;;;;;38.80;21.85;;;;;;;3.13;92.67;101561.23;1744033;82;21041;-77
2021/11/15 10:50:51;;;;;;;37.17;23.85;;;;;;;3.12;93.00;101563.06;1711429;83;21107;-78
2021/11/15 10:53:26;;;;;;;39.08;24.63;;;;;;;3.00;93.32;101557.18;1679838;83;20947;-74
2021/11/15 10:56:15;;;;;;;43.73;27.55;;;;;;;2.99;93.70;101565.30;1722526;82;21039;-78
2021/11/15 10:58:41;;;;;;;33.42;21.45;;;;;;;2.98;93.81;101567.61;1724967;82;21062;-76
2021/11/15 11:01:08;;;;;;;33.28;22.02;;;;;;;2.98;93.96;101569.78;1714954;83;21082;-74
2021/11/15 11:03:36;;;;;;;31.40;20.55;;;;;;;2.99;93.89;101571.94;1720836;82;21026;-73
2021/11/15 11:06:06;;;;;;;34.45;22.30;;;;;;;3.02;94.00;101572.45;1705459;83;21010;-74
2021/11/15 11:08:45;;;;;;;74.53;47.90;;;;;;;3.01;93.94;101572.14;1681529;84;20982;-77
2021/11/15 11:11:18;;;;;;;42.62;29.48;;;;;;;2.91;93.84;101575.38;1707979;81;20985;-77
2021/11/15 11:14:00;;;;;;;53.63;33.10;;;;;;;2.84;93.72;101582.28;1730042;82;21501;-75
2021/11/15 11:16:52;;;;;;;34.45;23.50;;;;;;;2.78;93.97;101577.58;1720004;82;21461;-77
2021/11/15 11:34:29;;;;;;;31.43;21.67;;;;;;;3.03;93.46;101591.91;1868581;76;27418;-75
2021/11/15 11:36:55;;;;;;;34.67;23.90;;;;;;;2.99;93.31;101595.86;1852613;77;20927;-71
2021/11/15 11:39:23;;;;;;;30.35;21.35;;;;;;;2.96;93.21;101592.20;1829176;77;21172;-73